• Join FlightAware (Why Join?)
  • Login
  • US Flag 
08:33AM EDT


 

Airport Tracker/Info


-or-


 

Live Flight TrackerFlight Track Log ✈ C-GTEV ✈ 20-Nov-2013 ✈ KIAG - KTYQ

Flight Track Log - Related Links

Times and Time Zones

All times are in EST time to prevent confusion due to time zone crossing. See the C-GTEV flight status page for this flight to view local times or setup timezone preferences in your user account.

Time Position Orientation Groundspeed Altitude Reporting Facility
EST Latitude Longitude Course Direction KTS MPH feet Rate Location/Type
05:47PM 43.1500 -78.8500 48° Northeast 160 184 3,100  Level Toronto Center
05:48PM 43.1667 -78.9000 295° West 160 184 4,700 1,620 Climbing Toronto Center
05:49PM 43.1167 -78.9500 216° Southwest 150 173 6,400 1,500 Climbing Toronto Center
05:50PM 43.1000 -79.0000 245° Southwest 150 173 7,700 1,320 Climbing Toronto Center
05:51PM 43.0667 -79.0167 200° South 150 173 9,100 1,200 Climbing Toronto Center
05:52PM 43.0500 -79.0833 251° West 170 196 10,100 900 Climbing Toronto Center
05:53PM 43.0167 -79.1500 236° Southwest 190 219 10,900 900 Climbing Toronto Center
05:54PM 42.9833 -79.2000 228° Southwest 200 230 12,000 1,140 Climbing Toronto Center
05:55PM 42.9667 -79.2667 251° West 200 230 13,200 1,080 Climbing Toronto Center
05:56PM 42.9333 -79.3333 236° Southwest 190 219 14,200 480 Climbing Toronto Center
05:57PM 42.9000 -79.4000 236° Southwest 210 242 14,200  Level Toronto Center
05:58PM 42.8667 -79.5000 246° West 240 276 14,200  Level Toronto Center
05:59PM 42.8333 -79.5667 236° Southwest 240 276 14,200 -60 Level Toronto Center
06:00PM 42.8167 -79.6500 255° West 240 276 14,100  Descending Toronto Center
06:00PM 42.8017 -79.7122 252° West 243 280 14,200  Climbing Cleveland Center
06:01PM 42.7683 -79.7928 241° Southwest 245 282 14,100 -60 Descending Cleveland Center
06:02PM 42.7350 -79.8733 241° Southwest 244 281 14,100 -60 Level Cleveland Center
06:03PM 42.7008 -79.9553 240° Southwest 249 287 14,000 -60 Descending Cleveland Center
06:04PM 42.6631 -80.0458 240° Southwest 249 287 14,000  Level Cleveland Center
06:05PM 42.6292 -80.1286 241° Southwest 249 287 14,000  Level Cleveland Center
06:06PM 42.5950 -80.2097 240° Southwest 248 285 14,000  Level Cleveland Center
06:07PM 42.5617 -80.2911 241° Southwest 247 284 14,000  Level Cleveland Center
06:08PM 42.5286 -80.3717 241° Southwest 242 278 14,100  Climbing Cleveland Center
06:09PM 42.4956 -80.4536 241° Southwest 246 283 14,000 -60 Descending Cleveland Center
06:10PM 42.4561 -80.5458 240° Southwest 242 278 14,000  Level Cleveland Center
06:11PM 42.4231 -80.6275 241° Southwest 245 282 14,000  Level Cleveland Center
06:13PM 42.3881 -80.7081 240° Southwest 247 284 14,000  Level Cleveland Center
06:14PM 42.3556 -80.7878 241° Southwest 244 281 14,100  Climbing Cleveland Center
06:15PM 42.3208 -80.8678 240° Southwest 244 281 14,100  Level Cleveland Center
06:16PM 42.2875 -80.9478 241° Southwest 244 281 14,100  Level Cleveland Center
06:17PM 42.2542 -81.0283 241° Southwest 243 280 14,100  Level Cleveland Center
06:18PM 42.2147 -81.1203 240° Southwest 241 277 14,100  Level Cleveland Center
06:19PM 42.1817 -81.1981 240° Southwest 239 275 14,100  Level Cleveland Center
06:20PM 42.1483 -81.2764 240° Southwest 240 276 14,100  Level Cleveland Center
06:21PM 42.1153 -81.3542 240° Southwest 238 274 14,100  Level Cleveland Center
06:22PM 42.0833 -81.4308 241° Southwest 235 270 14,100  Level Cleveland Center
06:23PM 42.0497 -81.5056 239° Southwest 232 267 14,100  Level Cleveland Center
06:24PM 42.0181 -81.5811 241° Southwest 230 265 14,100  Level Cleveland Center
06:25PM 41.9786 -81.6683 239° Southwest 232 267 14,100  Level Cleveland Center
06:26PM 41.9464 -81.7447 240° Southwest 233 268 14,100  Level Cleveland Center
06:27PM 41.9139 -81.8192 240° Southwest 232 267 14,100  Level Cleveland Center
06:28PM 41.8814 -81.8931 239° Southwest 230 265 14,100  Level Cleveland Center
06:29PM 41.8492 -81.9667 240° Southwest 228 262 14,100  Level Cleveland Center
06:30PM 41.8167 -82.0403 239° Southwest 228 262 14,100  Level Cleveland Center
06:31PM 41.7786 -82.1269 240° Southwest 230 265 14,100  Level Cleveland Center
06:32PM 41.7506 -82.1897 239° Southwest 229 264 14,100  Level Cleveland Center
06:33PM 41.7047 -82.2494 224° Southwest 229 264 14,100  Level Cleveland Center
06:34PM 41.6439 -82.3044 214° Southwest 230 265 14,100  Level Cleveland Center
06:35PM 41.5872 -82.3436 207° Southwest 230 265 14,100  Level Cleveland Center
06:36PM 41.5292 -82.3833 207° Southwest 231 266 14,100  Level Cleveland Center
06:37PM 41.4844 -82.4386 223° Southwest 228 262 14,100 -60 Level Cleveland Center
06:38PM 41.4472 -82.5242 240° Southwest 228 262 14,000  Descending Cleveland Center
06:39PM 41.4231 -82.6011 247° West 224 258 14,100  Climbing Cleveland Center
06:40PM 41.3914 -82.6756 240° Southwest 227 261 14,100  Level Cleveland Center
06:41PM 41.3614 -82.7497 242° Southwest 227 261 14,100 -60 Level Cleveland Center
06:43PM 41.3319 -82.8258 243° Southwest 228 262 14,000 -60 Descending Cleveland Center
06:44PM 41.3008 -82.9011 241° Southwest 231 266 14,000  Level Cleveland Center
06:45PM 41.2653 -82.9875 241° Southwest 227 261 14,000  Level Cleveland Center
06:46PM 41.2342 -83.0631 241° Southwest 230 265 14,000  Level Cleveland Center
06:47PM 41.2036 -83.1378 241° Southwest 230 265 14,000  Level Cleveland Center
06:48PM 41.1719 -83.2142 241° Southwest 230 265 14,000  Level Cleveland Center
06:49PM 41.1417 -83.2886 242° Southwest 230 265 14,000  Level Cleveland Center
06:50PM 41.1108 -83.3628 241° Southwest 231 266 14,000  Level Cleveland Center
06:51PM 41.0769 -83.4425 241° Southwest 228 262 14,000  Level Cleveland Center
06:52PM 41.0475 -83.5150 242° Southwest 225 259 14,000  Level Cleveland Center
06:53PM 41.0178 -83.5872 241° Southwest 224 258 14,000  Level Cleveland Center
06:54PM 40.9869 -83.6586 240° Southwest 224 258 14,000  Level Indianapolis Center
06:55PM 40.9517 -83.7450 242° Southwest 223 257 14,000  Level Indianapolis Center
06:56PM 40.9217 -83.8169 241° Southwest 224 258 14,000  Level Indianapolis Center
06:57PM 40.8911 -83.8886 241° Southwest 224 258 14,000  Level Indianapolis Center
06:58PM 40.8608 -83.9589 240° Southwest 221 254 14,000 -60 Level Indianapolis Center
06:59PM 40.8322 -84.0303 242° Southwest 221 254 13,900  Descending Indianapolis Center
07:00PM 40.8008 -84.1017 240° Southwest 224 258 14,000  Climbing Indianapolis Center
07:01PM 40.7656 -84.1861 241° Southwest 221 254 14,000  Level Indianapolis Center
07:02PM 40.7422 -84.2606 248° West 220 253 14,000  Level Indianapolis Center
07:03PM 40.7156 -84.3325 244° Southwest 219 252 14,000  Level Indianapolis Center
07:04PM 40.6900 -84.4061 245° Southwest 221 254 14,000  Level Indianapolis Center
07:05PM 40.6650 -84.4789 246° West 219 252 14,000  Level Indianapolis Center
07:06PM 40.6394 -84.5522 245° Southwest 221 254 14,000  Level Indianapolis Center
07:07PM 40.6086 -84.6397 245° Southwest 220 253 14,000  Level Indianapolis Center
07:08PM 40.5833 -84.7150 246° West 225 259 14,000  Level Indianapolis Center
07:09PM 40.5567 -84.7886 245° Southwest 225 259 14,000  Level Indianapolis Center
07:10PM 40.5311 -84.8625 246° West 223 257 14,000  Level Indianapolis Center
07:11PM 40.5061 -84.9344 245° Southwest 222 255 14,000  Level Indianapolis Center
07:12PM 40.4794 -85.0075 244° Southwest 222 255 14,000 -120 Level Indianapolis Center
07:14PM 40.4497 -85.0950 246° West 221 254 13,800 -360 Descending Indianapolis Center
07:14PM 40.4275 -85.1531 243° Southwest 224 258 13,400 -600 Descending Chicago Center
07:15PM 40.3986 -85.2314 244° Southwest 235 270 12,800 -540 Descending Chicago Center
07:16PM 40.3619 -85.2978 234° Southwest 228 262 12,400 -600 Descending Chicago Center
07:17PM 40.3219 -85.3681 233° Southwest 236 272 11,600 -720 Descending Chicago Center
07:18PM 40.2819 -85.4375 233° Southwest 239 275 11,000 -300 Descending Chicago Center
07:19PM 40.2375 -85.5167 234° Southwest 229 264 11,000  Level Chicago Center
07:21PM 40.2019 -85.5836 235° Southwest 225 259 11,000 -240 Level Chicago Center
07:22PM 40.1642 -85.6469 232° Southwest 221 254 10,600 -780 Descending Chicago Center
07:23PM 40.1242 -85.7164 233° Southwest 237 273 9,500 -1,140 Descending Chicago Center
07:24PM 40.0850 -85.7836 233° Southwest 235 270 8,300 -1,380 Descending Chicago Center
07:25PM 40.0469 -85.8519 234° Southwest 233 268 6,700 -1,500 Descending Chicago Center
07:26PM 40.0511 -85.9567 273° West 241 277 5,200 -1,380 Descending Chicago Center
07:27PM 40.0492 -86.0403 268° West 237 273 3,900 -1,020 Descending Chicago Center
07:28PM 40.0475 -86.1172 268° West 235 270 3,200 -720 Descending Chicago Center